sensor_id;sensor_type;location;lat;lon;timestamp;pressure;altitude;pressure_sealevel;temperature;humidity
13367;BME280;6752;52.612;13.630;2022-12-18T00:03:58;102623.77;;;-5.00;100.00
13367;BME280;6752;52.612;13.630;2022-12-18T00:09:00;102624.67;;;-4.55;100.00
13367;BME280;6752;52.612;13.630;2022-12-18T00:14:03;102633.75;;;-4.59;100.00
13367;BME280;6752;52.612;13.630;2022-12-18T00:19:05;102639.42;;;-4.57;100.00
13367;BME280;6752;52.612;13.630;2022-12-18T00:24:08;102645.80;;;-4.60;100.00
13367;BME280;6752;52.612;13.630;2022-12-18T00:29:12;102641.48;;;-4.71;100.00
13367;BME280;6752;52.612;13.630;2022-12-18T00:34:13;102632.30;;;-5.02;100.00
13367;BME280;6752;52.612;13.630;2022-12-18T00:39:22;102636.47;;;-5.06;100.00
13367;BME280;6752;52.612;13.630;2022-12-18T00:44:25;102632.17;;;-5.18;100.00
13367;BME280;6752;52.612;13.630;2022-12-18T00:49:27;102639.99;;;-5.05;100.00
13367;BME280;6752;52.612;13.630;2022-12-18T00:54:30;102639.27;;;-4.99;100.00
13367;BME280;6752;52.612;13.630;2022-12-18T00:59:32;102633.13;;;-5.38;100.00
13367;BME280;6752;52.612;13.630;2022-12-18T01:04:35;102634.23;;;-5.24;100.00
13367;BME280;6752;52.612;13.630;2022-12-18T01:09:37;102629.38;;;-5.25;100.00
13367;BME280;6752;52.612;13.630;2022-12-18T01:14:41;102633.56;;;-5.58;100.00
13367;BME280;6752;52.612;13.630;2022-12-18T01:19:43;102642.64;;;-5.24;100.00
13367;BME280;6752;52.612;13.630;2022-12-18T01:24:46;102646.58;;;-5.13;100.00
13367;BME280;6752;52.612;13.630;2022-12-18T01:29:49;102646.60;;;-5.33;100.00
13367;BME280;6752;52.612;13.630;2022-12-18T01:34:51;102661.41;;;-5.36;100.00
13367;BME280;6752;52.612;13.630;2022-12-18T01:39:54;102666.11;;;-5.33;100.00
13367;BME280;6752;52.612;13.630;2022-12-18T01:50:21;102658.55;;;-5.13;100.00
13367;BME280;6752;52.612;13.630;2022-12-18T01:55:28;102656.42;;;-4.87;100.00
13367;BME280;6752;52.612;13.630;2022-12-18T02:00:29;102665.50;;;-4.82;100.00
13367;BME280;6752;52.612;13.630;2022-12-18T02:05:59;102654.69;;;-4.88;100.00
13367;BME280;6752;52.612;13.630;2022-12-18T02:21:53;102661.50;;;-4.45;100.00
13367;BME280;6752;52.612;13.630;2022-12-18T02:26:56;102659.84;;;-4.66;100.00
13367;BME280;6752;52.612;13.630;2022-12-18T02:32:01;102669.89;;;-4.81;100.00
13367;BME280;6752;52.612;13.630;2022-12-18T02:37:12;102677.20;;;-4.95;100.00
13367;BME280;6752;52.612;13.630;2022-12-18T02:42:18;102675.22;;;-5.10;100.00
13367;BME280;6752;52.612;13.630;2022-12-18T02:47:24;102681.45;;;-5.39;100.00
13367;BME280;6752;52.612;13.630;2022-12-18T02:52:45;102689.48;;;-5.40;100.00
13367;BME280;6752;52.612;13.630;2022-12-18T02:57:58;102705.98;;;-5.42;100.00
13367;BME280;6752;52.612;13.630;2022-12-18T03:02:59;102700.31;;;-5.64;100.00
13367;BME280;6752;52.612;13.630;2022-12-18T03:08:06;102704.05;;;-5.59;100.00
13367;BME280;6752;52.612;13.630;2022-12-18T03:13:14;102711.00;;;-5.46;100.00
13367;BME280;6752;52.612;13.630;2022-12-18T03:18:20;102703.67;;;-5.71;100.00
13367;BME280;6752;52.612;13.630;2022-12-18T03:23:25;102711.97;;;-5.68;100.00
13367;BME280;6752;52.612;13.630;2022-12-18T03:28:25;102713.30;;;-5.68;100.00
13367;BME280;6752;52.612;13.630;2022-12-18T03:33:33;102713.53;;;-6.14;100.00
13367;BME280;6752;52.612;13.630;2022-12-18T03:38:33;102704.17;;;-5.52;100.00
13367;BME280;6752;52.612;13.630;2022-12-18T03:43:49;102702.69;;;-5.58;100.00
13367;BME280;6752;52.612;13.630;2022-12-18T03:48:51;102695.42;;;-5.84;100.00
13367;BME280;6752;52.612;13.630;2022-12-18T03:53:58;102704.60;;;-6.12;100.00
13367;BME280;6752;52.612;13.630;2022-12-18T03:58:56;102719.66;;;-6.12;100.00
13367;BME280;6752;52.612;13.630;2022-12-18T04:04:01;102714.75;;;-6.11;100.00
13367;BME280;6752;52.612;13.630;2022-12-18T04:09:04;102710.18;;;-5.68;100.00
13367;BME280;6752;52.612;13.630;2022-12-18T04:14:09;102708.44;;;-5.78;100.00
13367;BME280;6752;52.612;13.630;2022-12-18T04:19:12;102721.36;;;-6.00;100.00
13367;BME280;6752;52.612;13.630;2022-12-18T04:24:17;102727.73;;;-6.05;100.00
13367;BME280;6752;52.612;13.630;2022-12-18T04:29:19;102729.19;;;-6.08;100.00
13367;BME280;6752;52.612;13.630;2022-12-18T04:34:32;102732.31;;;-6.08;100.00
13367;BME280;6752;52.612;13.630;2022-12-18T04:39:34;102731.25;;;-6.14;100.00
13367;BME280;6752;52.612;13.630;2022-12-18T04:44:37;102730.80;;;-6.36;100.00
13367;BME280;6752;52.612;13.630;2022-12-18T04:49:39;102744.43;;;-6.34;100.00
13367;BME280;6752;52.612;13.630;2022-12-18T04:54:44;102746.05;;;-6.20;100.00
13367;BME280;6752;52.612;13.630;2022-12-18T04:59:46;102735.72;;;-6.26;100.00
13367;BME280;6752;52.612;13.630;2022-12-18T05:04:52;102734.85;;;-6.27;100.00
13367;BME280;6752;52.612;13.630;2022-12-18T05:09:54;102747.15;;;-6.35;100.00
13367;BME280;6752;52.612;13.630;2022-12-18T05:14:59;102753.70;;;-6.23;100.00
13367;BME280;6752;52.612;13.630;2022-12-18T05:20:02;102748.13;;;-6.27;100.00
13367;BME280;6752;52.612;13.630;2022-12-18T05:25:04;102765.37;;;-6.27;100.00
13367;BME280;6752;52.612;13.630;2022-12-18T05:30:25;102779.09;;;-5.95;100.00
13367;BME280;6752;52.612;13.630;2022-12-18T05:35:28;102775.16;;;-6.06;100.00
13367;BME280;6752;52.612;13.630;2022-12-18T05:40:30;102772.09;;;-5.86;100.00
13367;BME280;6752;52.612;13.630;2022-12-18T05:45:39;102794.83;;;-5.59;100.00
13367;BME280;6752;52.612;13.630;2022-12-18T05:50:42;102790.87;;;-6.01;100.00
13367;BME280;6752;52.612;13.630;2022-12-18T05:55:44;102789.16;;;-6.13;100.00
13367;BME280;6752;52.612;13.630;2022-12-18T06:00:46;102792.73;;;-6.36;100.00
13367;BME280;6752;52.612;13.630;2022-12-18T06:05:50;102793.87;;;-6.31;100.00
13367;BME280;6752;52.612;13.630;2022-12-18T06:10:53;102800.72;;;-6.26;100.00
13367;BME280;6752;52.612;13.630;2022-12-18T06:15:55;102816.21;;;-6.37;100.00
13367;BME280;6752;52.612;13.630;2022-12-18T06:20:58;102811.09;;;-6.30;100.00
13367;BME280;6752;52.612;13.630;2022-12-18T06:26:03;102812.11;;;-6.45;100.00
13367;BME280;6752;52.612;13.630;2022-12-18T06:31:05;102830.13;;;-6.43;100.00
13367;BME280;6752;52.612;13.630;2022-12-18T06:36:09;102829.20;;;-6.53;100.00
13367;BME280;6752;52.612;13.630;2022-12-18T06:41:11;102848.90;;;-6.59;100.00
13367;BME280;6752;52.612;13.630;2022-12-18T06:46:12;102862.62;;;-6.25;100.00
13367;BME280;6752;52.612;13.630;2022-12-18T06:51:22;102860.02;;;-6.49;100.00
13367;BME280;6752;52.612;13.630;2022-12-18T06:56:20;102856.83;;;-6.35;100.00
13367;BME280;6752;52.612;13.630;2022-12-18T07:01:27;102866.58;;;-6.35;100.00
13367;BME280;6752;52.612;13.630;2022-12-18T07:06:33;102860.30;;;-6.45;100.00
13367;BME280;6752;52.612;13.630;2022-12-18T07:11:35;102865.98;;;-6.43;100.00
13367;BME280;6752;52.612;13.630;2022-12-18T07:16:42;102861.69;;;-6.47;100.00
13367;BME280;6752;52.612;13.630;2022-12-18T07:22:03;102852.56;;;-6.17;100.00
13367;BME280;6752;52.612;13.630;2022-12-18T07:27:12;102868.41;;;-6.26;100.00
13367;BME280;6752;52.612;13.630;2022-12-18T07:32:17;102873.31;;;-6.16;100.00
13367;BME280;6752;52.612;13.630;2022-12-18T07:37:23;102873.31;;;-6.27;100.00
13367;BME280;6752;52.612;13.630;2022-12-18T07:42:28;102866.89;;;-6.32;100.00
13367;BME280;6752;52.612;13.630;2022-12-18T07:47:36;102878.67;;;-6.40;100.00
13367;BME280;6752;52.612;13.630;2022-12-18T07:52:38;102880.09;;;-6.30;100.00
13367;BME280;6752;52.612;13.630;2022-12-18T07:57:43;102883.28;;;-6.10;100.00
13367;BME280;6752;52.612;13.630;2022-12-18T08:02:45;102876.28;;;-6.12;100.00
13367;BME280;6752;52.612;13.630;2022-12-18T08:07:51;102868.42;;;-5.93;100.00
13367;BME280;6752;52.612;13.630;2022-12-18T08:12:53;102871.95;;;-5.92;100.00
13367;BME280;6752;52.612;13.630;2022-12-18T08:17:58;102869.52;;;-5.98;100.00
13367;BME280;6752;52.612;13.630;2022-12-18T08:23:01;102867.66;;;-6.07;100.00
13367;BME280;6752;52.612;13.630;2022-12-18T08:28:03;102870.00;;;-5.88;100.00
13367;BME280;6752;52.612;13.630;2022-12-18T08:33:08;102886.00;;;-6.00;100.00
13367;BME280;6752;52.612;13.630;2022-12-18T08:38:11;102880.56;;;-5.87;100.00
13367;BME280;6752;52.612;13.630;2022-12-18T08:43:13;102888.96;;;-5.97;100.00
13367;BME280;6752;52.612;13.630;2022-12-18T08:48:34;102904.63;;;-5.90;100.00
13367;BME280;6752;52.612;13.630;2022-12-18T08:53:36;102901.97;;;-5.69;100.00
13367;BME280;6752;52.612;13.630;2022-12-18T08:58:38;102903.20;;;-5.66;100.00
13367;BME280;6752;52.612;13.630;2022-12-18T09:03:41;102911.84;;;-5.61;100.00
13367;BME280;6752;52.612;13.630;2022-12-18T09:08:43;102922.55;;;-5.52;100.00
13367;BME280;6752;52.612;13.630;2022-12-18T09:13:45;102912.27;;;-5.29;100.00
13367;BME280;6752;52.612;13.630;2022-12-18T09:18:48;102918.63;;;-5.22;100.00
13367;BME280;6752;52.612;13.630;2022-12-18T09:23:50;102919.81;;;-5.29;100.00
13367;BME280;6752;52.612;13.630;2022-12-18T09:28:52;102939.66;;;-5.16;100.00
13367;BME280;6752;52.612;13.630;2022-12-18T09:33:55;102940.73;;;-5.20;100.00
13367;BME280;6752;52.612;13.630;2022-12-18T09:38:57;102931.42;;;-4.79;100.00
13367;BME280;6752;52.612;13.630;2022-12-18T09:44:05;102927.11;;;-4.92;100.00
13367;BME280;6752;52.612;13.630;2022-12-18T09:49:06;102915.92;;;-4.80;100.00
13367;BME280;6752;52.612;13.630;2022-12-18T09:54:11;102910.46;;;-4.96;100.00
13367;BME280;6752;52.612;13.630;2022-12-18T10:04:24;102897.61;;;-4.87;100.00
13367;BME280;6752;52.612;13.630;2022-12-18T10:09:32;102872.45;;;-4.69;100.00
13367;BME280;6752;52.612;13.630;2022-12-18T10:14:50;102848.86;;;-4.48;100.00
13367;BME280;6752;52.612;13.630;2022-12-18T10:19:59;102854.27;;;-4.50;100.00
13367;BME280;6752;52.612;13.630;2022-12-18T10:25:20;102856.23;;;-4.44;100.00
13367;BME280;6752;52.612;13.630;2022-12-18T10:30:21;102865.30;;;-4.49;100.00
13367;BME280;6752;52.612;13.630;2022-12-18T10:35:24;102853.04;;;-4.53;100.00
13367;BME280;6752;52.612;13.630;2022-12-18T10:40:25;102852.83;;;-4.57;100.00
13367;BME280;6752;52.612;13.630;2022-12-18T10:45:27;102857.80;;;-4.31;100.00
13367;BME280;6752;52.612;13.630;2022-12-18T10:50:33;102846.25;;;-4.12;100.00
13367;BME280;6752;52.612;13.630;2022-12-18T10:55:39;102832.19;;;-4.34;100.00
13367;BME280;6752;52.612;13.630;2022-12-18T11:00:37;102830.75;;;-4.31;100.00
13367;BME280;6752;52.612;13.630;2022-12-18T11:05:39;102827.22;;;-4.32;100.00
13367;BME280;6752;52.612;13.630;2022-12-18T11:10:44;102835.15;;;-4.40;100.00
13367;BME280;6752;52.612;13.630;2022-12-18T11:15:44;102826.48;;;-4.25;100.00
13367;BME280;6752;52.612;13.630;2022-12-18T11:20:53;102817.42;;;-4.49;100.00
13367;BME280;6752;52.612;13.630;2022-12-18T11:25:59;102811.88;;;-4.27;100.00
13367;BME280;6752;52.612;13.630;2022-12-18T11:36:14;102814.89;;;-4.24;100.00
13367;BME280;6752;52.612;13.630;2022-12-18T11:41:39;102827.27;;;-3.96;100.00
13367;BME280;6752;52.612;13.630;2022-12-18T11:47:03;102817.09;;;-3.96;100.00
13367;BME280;6752;52.612;13.630;2022-12-18T11:52:25;102838.62;;;-4.10;100.00
13367;BME280;6752;52.612;13.630;2022-12-18T11:57:27;102828.81;;;-4.18;100.00
13367;BME280;6752;52.612;13.630;2022-12-18T12:03:06;102840.23;;;-4.25;100.00
13367;BME280;6752;52.612;13.630;2022-12-18T12:08:29;102835.19;;;-4.04;100.00
13367;BME280;6752;52.612;13.630;2022-12-18T12:13:52;102842.70;;;-4.03;100.00
13367;BME280;6752;52.612;13.630;2022-12-18T12:24:57;102848.20;;;-3.88;100.00
13367;BME280;6752;52.612;13.630;2022-12-18T12:30:00;102863.14;;;-4.12;100.00
13367;BME280;6752;52.612;13.630;2022-12-18T12:35:25;102862.70;;;-3.94;100.00
13367;BME280;6752;52.612;13.630;2022-12-18T12:40:34;102868.42;;;-4.11;100.00
13367;BME280;6752;52.612;13.630;2022-12-18T12:50:43;102868.08;;;-3.76;100.00
13367;BME280;6752;52.612;13.630;2022-12-18T12:55:49;102868.79;;;-3.73;100.00
13367;BME280;6752;52.612;13.630;2022-12-18T13:01:01;102857.81;;;-3.85;100.00
13367;BME280;6752;52.612;13.630;2022-12-18T13:06:02;102844.68;;;-3.89;100.00
13367;BME280;6752;52.612;13.630;2022-12-18T13:11:02;102817.95;;;-3.69;100.00
13367;BME280;6752;52.612;13.630;2022-12-18T13:16:23;102812.70;;;-3.89;100.00
13367;BME280;6752;52.612;13.630;2022-12-18T13:21:32;102813.84;;;-3.85;100.00
13367;BME280;6752;52.612;13.630;2022-12-18T13:26:33;102819.05;;;-3.82;100.00
13367;BME280;6752;52.612;13.630;2022-12-18T13:36:42;102833.87;;;-3.76;100.00
13367;BME280;6752;52.612;13.630;2022-12-18T13:41:46;102834.66;;;-3.83;100.00
13367;BME280;6752;52.612;13.630;2022-12-18T13:46:49;102828.03;;;-3.84;100.00
13367;BME280;6752;52.612;13.630;2022-12-18T13:51:52;102825.17;;;-3.80;100.00
13367;BME280;6752;52.612;13.630;2022-12-18T13:56:53;102806.86;;;-3.61;100.00
13367;BME280;6752;52.612;13.630;2022-12-18T14:01:57;102776.26;;;-3.79;100.00
13367;BME280;6752;52.612;13.630;2022-12-18T14:07:05;102781.85;;;-3.75;100.00
13367;BME280;6752;52.612;13.630;2022-12-18T14:12:11;102782.14;;;-3.81;100.00
13367;BME280;6752;52.612;13.630;2022-12-18T14:17:28;102800.16;;;-3.95;100.00
13367;BME280;6752;52.612;13.630;2022-12-18T14:22:30;102765.70;;;-3.64;100.00
13367;BME280;6752;52.612;13.630;2022-12-18T14:27:36;102772.27;;;-3.53;100.00
13367;BME280;6752;52.612;13.630;2022-12-18T14:32:37;102773.89;;;-3.67;100.00
13367;BME280;6752;52.612;13.630;2022-12-18T14:37:39;102767.05;;;-3.82;100.00
13367;BME280;6752;52.612;13.630;2022-12-18T14:42:45;102756.98;;;-3.93;100.00
13367;BME280;6752;52.612;13.630;2022-12-18T14:47:50;102741.16;;;-3.96;100.00
13367;BME280;6752;52.612;13.630;2022-12-18T14:52:52;102722.05;;;-3.78;100.00
13367;BME280;6752;52.612;13.630;2022-12-18T14:57:55;102706.84;;;-3.76;100.00
13367;BME280;6752;52.612;13.630;2022-12-18T15:03:00;102704.72;;;-3.70;100.00
13367;BME280;6752;52.612;13.630;2022-12-18T15:08:02;102720.63;;;-3.68;100.00
13367;BME280;6752;52.612;13.630;2022-12-18T15:13:07;102740.47;;;-3.74;100.00
13367;BME280;6752;52.612;13.630;2022-12-18T15:23:29;102777.30;;;-3.73;100.00
13367;BME280;6752;52.612;13.630;2022-12-18T15:28:39;102781.55;;;-3.79;100.00
13367;BME280;6752;52.612;13.630;2022-12-18T15:33:42;102783.77;;;-3.69;100.00
13367;BME280;6752;52.612;13.630;2022-12-18T15:38:46;102771.05;;;-3.90;100.00
13367;BME280;6752;52.612;13.630;2022-12-18T15:43:49;102772.11;;;-3.94;100.00
13367;BME280;6752;52.612;13.630;2022-12-18T15:48:51;102780.45;;;-4.00;100.00
13367;BME280;6752;52.612;13.630;2022-12-18T15:53:54;102774.70;;;-3.92;100.00
13367;BME280;6752;52.612;13.630;2022-12-18T15:58:55;102778.84;;;-3.95;100.00
13367;BME280;6752;52.612;13.630;2022-12-18T16:03:57;102772.54;;;-4.03;100.00
13367;BME280;6752;52.612;13.630;2022-12-18T16:09:00;102755.58;;;-4.00;100.00
13367;BME280;6752;52.612;13.630;2022-12-18T16:14:03;102753.06;;;-3.95;100.00
13367;BME280;6752;52.612;13.630;2022-12-18T16:19:05;102741.98;;;-3.69;100.00
13367;BME280;6752;52.612;13.630;2022-12-18T16:24:15;102728.63;;;-3.77;100.00
13367;BME280;6752;52.612;13.630;2022-12-18T16:29:27;102721.20;;;-3.80;100.00
13367;BME280;6752;52.612;13.630;2022-12-18T16:34:30;102725.91;;;-3.85;100.00
13367;BME280;6752;52.612;13.630;2022-12-18T16:39:36;102727.72;;;-3.68;100.00
13367;BME280;6752;52.612;13.630;2022-12-18T16:44:34;102736.45;;;-3.65;100.00
13367;BME280;6752;52.612;13.630;2022-12-18T16:49:36;102738.48;;;-3.88;100.00
13367;BME280;6752;52.612;13.630;2022-12-18T16:54:39;102726.86;;;-3.68;100.00
13367;BME280;6752;52.612;13.630;2022-12-18T16:59:41;102722.96;;;-3.79;100.00
13367;BME280;6752;52.612;13.630;2022-12-18T17:04:43;102708.61;;;-3.76;100.00
13367;BME280;6752;52.612;13.630;2022-12-18T17:09:46;102712.03;;;-3.83;100.00
13367;BME280;6752;52.612;13.630;2022-12-18T17:14:48;102726.41;;;-3.86;100.00
13367;BME280;6752;52.612;13.630;2022-12-18T17:19:51;102728.52;;;-3.75;100.00
13367;BME280;6752;52.612;13.630;2022-12-18T17:24:53;102724.55;;;-3.75;100.00
13367;BME280;6752;52.612;13.630;2022-12-18T17:29:55;102728.71;;;-3.78;100.00
13367;BME280;6752;52.612;13.630;2022-12-18T17:34:58;102743.11;;;-3.91;100.00
13367;BME280;6752;52.612;13.630;2022-12-18T17:40:00;102729.91;;;-3.93;100.00
13367;BME280;6752;52.612;13.630;2022-12-18T17:45:03;102742.77;;;-4.11;100.00
13367;BME280;6752;52.612;13.630;2022-12-18T17:50:05;102736.73;;;-4.14;100.00
13367;BME280;6752;52.612;13.630;2022-12-18T17:55:08;102734.84;;;-4.21;100.00
13367;BME280;6752;52.612;13.630;2022-12-18T18:00:10;102724.28;;;-4.14;100.00
13367;BME280;6752;52.612;13.630;2022-12-18T18:05:12;102718.63;;;-4.25;100.00
13367;BME280;6752;52.612;13.630;2022-12-18T18:10:15;102713.58;;;-4.40;100.00
13367;BME280;6752;52.612;13.630;2022-12-18T18:15:17;102689.66;;;-4.32;100.00
13367;BME280;6752;52.612;13.630;2022-12-18T18:20:20;102687.19;;;-4.36;100.00
13367;BME280;6752;52.612;13.630;2022-12-18T18:25:22;102674.89;;;-4.47;100.00
13367;BME280;6752;52.612;13.630;2022-12-18T18:30:24;102670.11;;;-4.49;100.00
13367;BME280;6752;52.612;13.630;2022-12-18T18:35:27;102663.41;;;-4.66;100.00
13367;BME280;6752;52.612;13.630;2022-12-18T18:40:29;102670.41;;;-4.74;100.00
13367;BME280;6752;52.612;13.630;2022-12-18T18:45:31;102667.41;;;-4.66;100.00
13367;BME280;6752;52.612;13.630;2022-12-18T18:50:33;102658.55;;;-4.76;100.00
13367;BME280;6752;52.612;13.630;2022-12-18T18:55:36;102651.82;;;-4.75;100.00
13367;BME280;6752;52.612;13.630;2022-12-18T19:00:38;102638.90;;;-4.82;100.00
13367;BME280;6752;52.612;13.630;2022-12-18T19:05:41;102615.12;;;-4.77;100.00
13367;BME280;6752;52.612;13.630;2022-12-18T19:10:43;102619.36;;;-4.91;100.00
13367;BME280;6752;52.612;13.630;2022-12-18T19:15:46;102615.66;;;-4.87;100.00
13367;BME280;6752;52.612;13.630;2022-12-18T19:20:55;102619.53;;;-4.85;100.00
13367;BME280;6752;52.612;13.630;2022-12-18T19:25:59;102602.86;;;-4.89;100.00
13367;BME280;6752;52.612;13.630;2022-12-18T19:31:03;102603.98;;;-4.93;100.00
13367;BME280;6752;52.612;13.630;2022-12-18T19:36:11;102580.41;;;-4.83;100.00
13367;BME280;6752;52.612;13.630;2022-12-18T19:41:13;102580.16;;;-4.96;100.00
13367;BME280;6752;52.612;13.630;2022-12-18T19:46:16;102600.23;;;-4.99;100.00
13367;BME280;6752;52.612;13.630;2022-12-18T19:51:21;102598.12;;;-4.91;100.00
13367;BME280;6752;52.612;13.630;2022-12-18T19:56:23;102592.84;;;-4.92;100.00
13367;BME280;6752;52.612;13.630;2022-12-18T20:01:26;102578.84;;;-4.79;100.00
13367;BME280;6752;52.612;13.630;2022-12-18T20:06:50;102584.12;;;-4.86;100.00
13367;BME280;6752;52.612;13.630;2022-12-18T20:11:51;102574.96;;;-4.99;100.00
13367;BME280;6752;52.612;13.630;2022-12-18T20:16:54;102562.33;;;-4.94;100.00
13367;BME280;6752;52.612;13.630;2022-12-18T20:21:56;102551.38;;;-4.96;100.00
13367;BME280;6752;52.612;13.630;2022-12-18T20:26:59;102541.79;;;-4.91;100.00
13367;BME280;6752;52.612;13.630;2022-12-18T20:32:01;102539.28;;;-5.03;100.00
13367;BME280;6752;52.612;13.630;2022-12-18T20:37:04;102545.77;;;-5.09;100.00
13367;BME280;6752;52.612;13.630;2022-12-18T20:42:06;102547.34;;;-4.96;100.00
13367;BME280;6752;52.612;13.630;2022-12-18T20:47:08;102548.28;;;-5.06;100.00
13367;BME280;6752;52.612;13.630;2022-12-18T20:52:11;102553.69;;;-4.99;100.00
13367;BME280;6752;52.612;13.630;2022-12-18T20:57:13;102542.22;;;-4.91;100.00
13367;BME280;6752;52.612;13.630;2022-12-18T21:02:15;102549.92;;;-4.94;100.00
13367;BME280;6752;52.612;13.630;2022-12-18T21:07:18;102543.13;;;-4.91;100.00
13367;BME280;6752;52.612;13.630;2022-12-18T21:12:20;102538.08;;;-4.97;100.00
13367;BME280;6752;52.612;13.630;2022-12-18T21:17:37;102539.80;;;-4.87;100.00
13367;BME280;6752;52.612;13.630;2022-12-18T21:22:39;102528.06;;;-4.83;100.00
13367;BME280;6752;52.612;13.630;2022-12-18T21:27:44;102529.31;;;-4.90;100.00
13367;BME280;6752;52.612;13.630;2022-12-18T21:32:46;102519.69;;;-4.92;100.00
13367;BME280;6752;52.612;13.630;2022-12-18T21:37:48;102513.11;;;-4.85;100.00
13367;BME280;6752;52.612;13.630;2022-12-18T21:42:51;102512.84;;;-4.88;100.00
13367;BME280;6752;52.612;13.630;2022-12-18T21:48:02;102496.68;;;-4.76;100.00
13367;BME280;6752;52.612;13.630;2022-12-18T21:53:04;102498.99;;;-4.86;100.00
13367;BME280;6752;52.612;13.630;2022-12-18T21:58:07;102502.86;;;-4.75;100.00
13367;BME280;6752;52.612;13.630;2022-12-18T22:03:11;102497.97;;;-4.75;100.00
13367;BME280;6752;52.612;13.630;2022-12-18T22:08:13;102496.37;;;-4.79;100.00
13367;BME280;6752;52.612;13.630;2022-12-18T22:13:15;102502.47;;;-4.76;100.00
13367;BME280;6752;52.612;13.630;2022-12-18T22:18:18;102512.34;;;-4.87;100.00
13367;BME280;6752;52.612;13.630;2022-12-18T22:23:23;102480.05;;;-4.80;100.00
13367;BME280;6752;52.612;13.630;2022-12-18T22:28:30;102477.66;;;-4.77;100.00
13367;BME280;6752;52.612;13.630;2022-12-18T22:33:51;102471.95;;;-4.78;100.00
13367;BME280;6752;52.612;13.630;2022-12-18T22:38:53;102469.94;;;-4.73;100.00
13367;BME280;6752;52.612;13.630;2022-12-18T22:43:59;102459.52;;;-4.77;100.00
13367;BME280;6752;52.612;13.630;2022-12-18T22:49:01;102442.27;;;-4.70;100.00
13367;BME280;6752;52.612;13.630;2022-12-18T22:54:06;102431.70;;;-4.80;100.00
13367;BME280;6752;52.612;13.630;2022-12-18T22:59:15;102419.73;;;-4.80;100.00
13367;BME280;6752;52.612;13.630;2022-12-18T23:04:17;102413.30;;;-4.76;100.00
13367;BME280;6752;52.612;13.630;2022-12-18T23:09:19;102393.73;;;-4.75;100.00
13367;BME280;6752;52.612;13.630;2022-12-18T23:14:24;102395.44;;;-4.82;100.00
13367;BME280;6752;52.612;13.630;2022-12-18T23:19:27;102389.03;;;-4.86;100.00
13367;BME280;6752;52.612;13.630;2022-12-18T23:24:32;102370.16;;;-4.82;100.00
13367;BME280;6752;52.612;13.630;2022-12-18T23:29:35;102359.01;;;-4.80;100.00
13367;BME280;6752;52.612;13.630;2022-12-18T23:34:37;102360.03;;;-4.83;100.00
13367;BME280;6752;52.612;13.630;2022-12-18T23:39:39;102370.37;;;-4.85;100.00
13367;BME280;6752;52.612;13.630;2022-12-18T23:44:42;102357.16;;;-4.79;100.00
13367;BME280;6752;52.612;13.630;2022-12-18T23:49:44;102349.34;;;-4.82;100.00
13367;BME280;6752;52.612;13.630;2022-12-18T23:54:47;102330.89;;;-4.85;100.00
13367;BME280;6752;52.612;13.630;2022-12-18T23:59:49;102327.30;;;-4.76;100.00
